sensor_id;sensor_type;location;lat;lon;timestamp;P1;durP1;ratioP1;P2;durP2;ratioP2
17714;SDS011;8977;50.902;4.314;2023-05-09T00:00:02;10.48;;;7.32;;
17714;SDS011;8977;50.902;4.314;2023-05-09T00:02:31;8.30;;;6.50;;
17714;SDS011;8977;50.902;4.314;2023-05-09T00:04:59;7.32;;;6.35;;
17714;SDS011;8977;50.902;4.314;2023-05-09T00:07:28;7.88;;;6.55;;
17714;SDS011;8977;50.902;4.314;2023-05-09T00:09:55;8.18;;;6.35;;
17714;SDS011;8977;50.902;4.314;2023-05-09T00:12:22;7.38;;;6.60;;
17714;SDS011;8977;50.902;4.314;2023-05-09T00:14:49;8.00;;;6.80;;
17714;SDS011;8977;50.902;4.314;2023-05-09T00:17:18;8.40;;;6.55;;
17714;SDS011;8977;50.902;4.314;2023-05-09T00:19:46;8.75;;;7.05;;
17714;SDS011;8977;50.902;4.314;2023-05-09T00:22:15;8.35;;;6.45;;
17714;SDS011;8977;50.902;4.314;2023-05-09T00:24:43;8.48;;;6.63;;
17714;SDS011;8977;50.902;4.314;2023-05-09T00:27:10;8.32;;;6.70;;
17714;SDS011;8977;50.902;4.314;2023-05-09T00:29:37;6.50;;;5.90;;
17714;SDS011;8977;50.902;4.314;2023-05-09T00:32:04;8.53;;;6.20;;
17714;SDS011;8977;50.902;4.314;2023-05-09T00:34:31;8.23;;;6.30;;
17714;SDS011;8977;50.902;4.314;2023-05-09T00:36:58;7.03;;;6.25;;
17714;SDS011;8977;50.902;4.314;2023-05-09T00:39:27;7.22;;;6.25;;
17714;SDS011;8977;50.902;4.314;2023-05-09T00:41:54;7.28;;;6.57;;
17714;SDS011;8977;50.902;4.314;2023-05-09T00:44:21;6.97;;;6.22;;
17714;SDS011;8977;50.902;4.314;2023-05-09T00:46:48;6.68;;;5.95;;
17714;SDS011;8977;50.902;4.314;2023-05-09T00:49:15;6.95;;;6.25;;
17714;SDS011;8977;50.902;4.314;2023-05-09T00:51:42;8.80;;;5.90;;
17714;SDS011;8977;50.902;4.314;2023-05-09T00:54:09;7.93;;;6.18;;
17714;SDS011;8977;50.902;4.314;2023-05-09T00:56:38;6.63;;;5.80;;
17714;SDS011;8977;50.902;4.314;2023-05-09T00:59:05;6.55;;;5.95;;
17714;SDS011;8977;50.902;4.314;2023-05-09T01:01:32;6.18;;;5.57;;
17714;SDS011;8977;50.902;4.314;2023-05-09T01:03:59;10.53;;;6.30;;
17714;SDS011;8977;50.902;4.314;2023-05-09T01:06:28;7.18;;;5.80;;
17714;SDS011;8977;50.902;4.314;2023-05-09T01:09:03;7.30;;;6.15;;
17714;SDS011;8977;50.902;4.314;2023-05-09T01:11:41;6.13;;;5.53;;
17714;SDS011;8977;50.902;4.314;2023-05-09T01:14:13;6.95;;;6.00;;
17714;SDS011;8977;50.902;4.314;2023-05-09T01:16:49;9.13;;;6.07;;
17714;SDS011;8977;50.902;4.314;2023-05-09T01:19:26;6.53;;;5.65;;
17714;SDS011;8977;50.902;4.314;2023-05-09T01:22:06;6.53;;;5.82;;
17714;SDS011;8977;50.902;4.314;2023-05-09T01:24:56;6.75;;;5.88;;
17714;SDS011;8977;50.902;4.314;2023-05-09T01:27:38;6.13;;;5.35;;
17714;SDS011;8977;50.902;4.314;2023-05-09T01:30:12;8.88;;;6.47;;
17714;SDS011;8977;50.902;4.314;2023-05-09T01:32:41;7.27;;;5.57;;
17714;SDS011;8977;50.902;4.314;2023-05-09T01:35:09;8.20;;;6.03;;
17714;SDS011;8977;50.902;4.314;2023-05-09T01:37:41;8.10;;;6.50;;
17714;SDS011;8977;50.902;4.314;2023-05-09T01:40:11;8.68;;;6.03;;
17714;SDS011;8977;50.902;4.314;2023-05-09T01:42:41;7.53;;;6.32;;
17714;SDS011;8977;50.902;4.314;2023-05-09T01:45:11;7.80;;;6.65;;
17714;SDS011;8977;50.902;4.314;2023-05-09T01:47:40;9.07;;;6.05;;
17714;SDS011;8977;50.902;4.314;2023-05-09T01:50:09;9.77;;;6.15;;
17714;SDS011;8977;50.902;4.314;2023-05-09T01:52:37;10.02;;;6.15;;
17714;SDS011;8977;50.902;4.314;2023-05-09T01:55:07;9.75;;;6.75;;
17714;SDS011;8977;50.902;4.314;2023-05-09T01:57:35;7.55;;;6.20;;
17714;SDS011;8977;50.902;4.314;2023-05-09T02:00:04;8.00;;;6.40;;
17714;SDS011;8977;50.902;4.314;2023-05-09T02:02:34;7.73;;;6.60;;
17714;SDS011;8977;50.902;4.314;2023-05-09T02:05:02;9.65;;;6.95;;
17714;SDS011;8977;50.902;4.314;2023-05-09T02:07:30;8.30;;;6.40;;
17714;SDS011;8977;50.902;4.314;2023-05-09T02:09:57;9.05;;;6.20;;
17714;SDS011;8977;50.902;4.314;2023-05-09T02:12:25;8.25;;;6.65;;
17714;SDS011;8977;50.902;4.314;2023-05-09T02:14:52;7.85;;;6.40;;
17714;SDS011;8977;50.902;4.314;2023-05-09T02:17:19;7.90;;;6.03;;
17714;SDS011;8977;50.902;4.314;2023-05-09T02:19:48;9.03;;;6.70;;
17714;SDS011;8977;50.902;4.314;2023-05-09T02:22:15;10.02;;;6.70;;
17714;SDS011;8977;50.902;4.314;2023-05-09T02:24:42;9.07;;;6.40;;
17714;SDS011;8977;50.902;4.314;2023-05-09T02:27:10;10.15;;;7.15;;
17714;SDS011;8977;50.902;4.314;2023-05-09T02:29:39;8.55;;;6.13;;
17714;SDS011;8977;50.902;4.314;2023-05-09T02:32:10;7.88;;;6.50;;
17714;SDS011;8977;50.902;4.314;2023-05-09T02:34:40;9.43;;;6.35;;
17714;SDS011;8977;50.902;4.314;2023-05-09T02:37:09;8.20;;;6.13;;
17714;SDS011;8977;50.902;4.314;2023-05-09T02:39:36;9.40;;;5.68;;
17714;SDS011;8977;50.902;4.314;2023-05-09T02:42:04;8.43;;;6.53;;
17714;SDS011;8977;50.902;4.314;2023-05-09T02:44:35;7.15;;;6.07;;
17714;SDS011;8977;50.902;4.314;2023-05-09T02:47:03;8.02;;;6.40;;
17714;SDS011;8977;50.902;4.314;2023-05-09T02:49:31;8.03;;;6.10;;
17714;SDS011;8977;50.902;4.314;2023-05-09T02:51:58;8.52;;;6.82;;
17714;SDS011;8977;50.902;4.314;2023-05-09T02:54:27;8.33;;;6.53;;
17714;SDS011;8977;50.902;4.314;2023-05-09T02:56:54;9.20;;;6.45;;
17714;SDS011;8977;50.902;4.314;2023-05-09T02:59:21;6.78;;;6.18;;
17714;SDS011;8977;50.902;4.314;2023-05-09T03:01:48;8.27;;;6.32;;
17714;SDS011;8977;50.902;4.314;2023-05-09T03:04:15;8.43;;;6.45;;
17714;SDS011;8977;50.902;4.314;2023-05-09T03:06:43;7.43;;;6.60;;
17714;SDS011;8977;50.902;4.314;2023-05-09T03:09:10;9.32;;;6.78;;
17714;SDS011;8977;50.902;4.314;2023-05-09T03:11:39;8.47;;;5.83;;
17714;SDS011;8977;50.902;4.314;2023-05-09T03:14:06;12.00;;;6.78;;
17714;SDS011;8977;50.902;4.314;2023-05-09T03:16:34;10.35;;;7.25;;
17714;SDS011;8977;50.902;4.314;2023-05-09T03:19:02;8.73;;;7.20;;
17714;SDS011;8977;50.902;4.314;2023-05-09T03:21:29;8.60;;;6.83;;
17714;SDS011;8977;50.902;4.314;2023-05-09T03:23:57;11.88;;;7.10;;
17714;SDS011;8977;50.902;4.314;2023-05-09T03:26:24;8.57;;;6.68;;
17714;SDS011;8977;50.902;4.314;2023-05-09T03:28:52;11.20;;;6.77;;
17714;SDS011;8977;50.902;4.314;2023-05-09T03:31:19;10.37;;;7.50;;
17714;SDS011;8977;50.902;4.314;2023-05-09T03:33:46;8.43;;;7.53;;
17714;SDS011;8977;50.902;4.314;2023-05-09T03:36:13;10.17;;;7.60;;
17714;SDS011;8977;50.902;4.314;2023-05-09T03:38:40;8.77;;;7.10;;
17714;SDS011;8977;50.902;4.314;2023-05-09T03:41:08;8.65;;;7.20;;
17714;SDS011;8977;50.902;4.314;2023-05-09T03:43:35;10.73;;;7.17;;
17714;SDS011;8977;50.902;4.314;2023-05-09T03:46:03;8.90;;;7.40;;
17714;SDS011;8977;50.902;4.314;2023-05-09T03:48:30;8.60;;;7.63;;
17714;SDS011;8977;50.902;4.314;2023-05-09T03:50:57;9.57;;;7.23;;
17714;SDS011;8977;50.902;4.314;2023-05-09T03:53:24;8.27;;;7.32;;
17714;SDS011;8977;50.902;4.314;2023-05-09T03:55:51;8.23;;;7.13;;
17714;SDS011;8977;50.902;4.314;2023-05-09T03:58:18;9.43;;;7.68;;
17714;SDS011;8977;50.902;4.314;2023-05-09T04:00:45;10.32;;;7.35;;
17714;SDS011;8977;50.902;4.314;2023-05-09T04:03:13;9.47;;;7.67;;
17714;SDS011;8977;50.902;4.314;2023-05-09T04:05:40;10.65;;;7.82;;
17714;SDS011;8977;50.902;4.314;2023-05-09T04:08:07;9.63;;;7.50;;
17714;SDS011;8977;50.902;4.314;2023-05-09T04:10:34;10.02;;;7.68;;
17714;SDS011;8977;50.902;4.314;2023-05-09T04:13:01;9.73;;;7.37;;
17714;SDS011;8977;50.902;4.314;2023-05-09T04:15:28;11.93;;;7.73;;
17714;SDS011;8977;50.902;4.314;2023-05-09T04:17:55;7.87;;;7.10;;
17714;SDS011;8977;50.902;4.314;2023-05-09T04:20:24;8.80;;;7.30;;
17714;SDS011;8977;50.902;4.314;2023-05-09T04:22:51;9.35;;;7.47;;
17714;SDS011;8977;50.902;4.314;2023-05-09T04:25:18;8.15;;;7.22;;
17714;SDS011;8977;50.902;4.314;2023-05-09T04:27:45;10.10;;;7.63;;
17714;SDS011;8977;50.902;4.314;2023-05-09T04:30:12;10.13;;;7.53;;
17714;SDS011;8977;50.902;4.314;2023-05-09T04:32:39;8.52;;;7.65;;
17714;SDS011;8977;50.902;4.314;2023-05-09T04:35:09;8.70;;;7.68;;
17714;SDS011;8977;50.902;4.314;2023-05-09T04:37:38;8.23;;;7.30;;
17714;SDS011;8977;50.902;4.314;2023-05-09T04:40:06;10.25;;;7.35;;
17714;SDS011;8977;50.902;4.314;2023-05-09T04:42:34;9.33;;;7.30;;
17714;SDS011;8977;50.902;4.314;2023-05-09T04:45:01;8.60;;;7.60;;
17714;SDS011;8977;50.902;4.314;2023-05-09T04:47:29;10.60;;;7.60;;
17714;SDS011;8977;50.902;4.314;2023-05-09T04:49:56;9.60;;;7.77;;
17714;SDS011;8977;50.902;4.314;2023-05-09T04:52:23;9.30;;;7.13;;
17714;SDS011;8977;50.902;4.314;2023-05-09T04:54:52;9.25;;;7.80;;
17714;SDS011;8977;50.902;4.314;2023-05-09T04:57:19;9.50;;;7.78;;
17714;SDS011;8977;50.902;4.314;2023-05-09T04:59:46;9.90;;;7.45;;
17714;SDS011;8977;50.902;4.314;2023-05-09T05:02:13;8.45;;;7.50;;
17714;SDS011;8977;50.902;4.314;2023-05-09T05:04:40;8.63;;;7.22;;
17714;SDS011;8977;50.902;4.314;2023-05-09T05:07:07;9.48;;;7.97;;
17714;SDS011;8977;50.902;4.314;2023-05-09T05:09:34;7.43;;;6.73;;
17714;SDS011;8977;50.902;4.314;2023-05-09T05:12:02;8.50;;;7.00;;
17714;SDS011;8977;50.902;4.314;2023-05-09T05:14:31;8.10;;;7.05;;
17714;SDS011;8977;50.902;4.314;2023-05-09T05:16:58;7.97;;;7.17;;
17714;SDS011;8977;50.902;4.314;2023-05-09T05:19:25;7.80;;;7.03;;
17714;SDS011;8977;50.902;4.314;2023-05-09T05:21:51;6.90;;;6.20;;
17714;SDS011;8977;50.902;4.314;2023-05-09T05:24:18;7.57;;;6.43;;
17714;SDS011;8977;50.902;4.314;2023-05-09T05:26:45;7.20;;;6.20;;
17714;SDS011;8977;50.902;4.314;2023-05-09T05:29:13;6.85;;;6.25;;
17714;SDS011;8977;50.902;4.314;2023-05-09T05:31:41;6.30;;;5.70;;
17714;SDS011;8977;50.902;4.314;2023-05-09T05:34:08;7.83;;;6.43;;
17714;SDS011;8977;50.902;4.314;2023-05-09T05:36:35;8.18;;;6.47;;
17714;SDS011;8977;50.902;4.314;2023-05-09T05:39:02;7.90;;;7.10;;
17714;SDS011;8977;50.902;4.314;2023-05-09T05:41:29;7.20;;;6.50;;
17714;SDS011;8977;50.902;4.314;2023-05-09T05:43:56;8.30;;;6.70;;
17714;SDS011;8977;50.902;4.314;2023-05-09T05:46:24;7.40;;;6.70;;
17714;SDS011;8977;50.902;4.314;2023-05-09T05:48:51;7.85;;;6.95;;
17714;SDS011;8977;50.902;4.314;2023-05-09T05:51:18;7.85;;;7.10;;
17714;SDS011;8977;50.902;4.314;2023-05-09T05:53:45;7.15;;;6.43;;
17714;SDS011;8977;50.902;4.314;2023-05-09T05:56:12;8.35;;;6.82;;
17714;SDS011;8977;50.902;4.314;2023-05-09T05:58:39;8.03;;;7.23;;
17714;SDS011;8977;50.902;4.314;2023-05-09T06:01:05;7.70;;;6.93;;
17714;SDS011;8977;50.902;4.314;2023-05-09T06:03:34;9.03;;;7.33;;
17714;SDS011;8977;50.902;4.314;2023-05-09T06:06:01;8.17;;;7.03;;
17714;SDS011;8977;50.902;4.314;2023-05-09T06:08:28;7.93;;;6.67;;
17714;SDS011;8977;50.902;4.314;2023-05-09T06:10:55;10.02;;;7.45;;
17714;SDS011;8977;50.902;4.314;2023-05-09T06:13:22;9.68;;;7.43;;
17714;SDS011;8977;50.902;4.314;2023-05-09T06:15:48;9.40;;;7.07;;
17714;SDS011;8977;50.902;4.314;2023-05-09T06:18:15;6.95;;;6.30;;
17714;SDS011;8977;50.902;4.314;2023-05-09T06:20:44;7.60;;;6.72;;
17714;SDS011;8977;50.902;4.314;2023-05-09T06:23:10;9.27;;;7.25;;
17714;SDS011;8977;50.902;4.314;2023-05-09T06:25:38;8.03;;;7.23;;
17714;SDS011;8977;50.902;4.314;2023-05-09T06:28:05;7.57;;;6.43;;
17714;SDS011;8977;50.902;4.314;2023-05-09T06:30:32;7.47;;;6.68;;
17714;SDS011;8977;50.902;4.314;2023-05-09T06:32:58;7.80;;;7.07;;
17714;SDS011;8977;50.902;4.314;2023-05-09T06:35:25;8.48;;;6.25;;
17714;SDS011;8977;50.902;4.314;2023-05-09T06:37:54;8.23;;;6.63;;
17714;SDS011;8977;50.902;4.314;2023-05-09T06:40:20;7.80;;;7.00;;
17714;SDS011;8977;50.902;4.314;2023-05-09T06:42:47;8.30;;;6.70;;
17714;SDS011;8977;50.902;4.314;2023-05-09T06:45:14;8.88;;;7.07;;
17714;SDS011;8977;50.902;4.314;2023-05-09T06:47:41;8.20;;;6.60;;
17714;SDS011;8977;50.902;4.314;2023-05-09T06:50:08;7.20;;;6.40;;
17714;SDS011;8977;50.902;4.314;2023-05-09T06:52:35;7.77;;;6.73;;
17714;SDS011;8977;50.902;4.314;2023-05-09T06:55:04;8.17;;;6.87;;
17714;SDS011;8977;50.902;4.314;2023-05-09T06:57:32;8.27;;;6.93;;
17714;SDS011;8977;50.902;4.314;2023-05-09T06:59:59;8.02;;;6.70;;
17714;SDS011;8977;50.902;4.314;2023-05-09T07:02:26;7.40;;;6.33;;
17714;SDS011;8977;50.902;4.314;2023-05-09T07:04:53;11.38;;;7.10;;
17714;SDS011;8977;50.902;4.314;2023-05-09T07:07:20;7.17;;;6.47;;
17714;SDS011;8977;50.902;4.314;2023-05-09T07:09:47;6.87;;;6.17;;
17714;SDS011;8977;50.902;4.314;2023-05-09T07:12:15;6.97;;;6.27;;
17714;SDS011;8977;50.902;4.314;2023-05-09T07:14:42;6.85;;;6.10;;
17714;SDS011;8977;50.902;4.314;2023-05-09T07:17:09;9.60;;;6.75;;
17714;SDS011;8977;50.902;4.314;2023-05-09T07:19:36;8.05;;;6.78;;
17714;SDS011;8977;50.902;4.314;2023-05-09T07:22:02;6.77;;;6.17;;
17714;SDS011;8977;50.902;4.314;2023-05-09T07:24:29;7.72;;;6.53;;
17714;SDS011;8977;50.902;4.314;2023-05-09T07:26:56;8.05;;;6.43;;
17714;SDS011;8977;50.902;4.314;2023-05-09T07:29:24;7.10;;;6.40;;
17714;SDS011;8977;50.902;4.314;2023-05-09T07:31:51;8.17;;;6.30;;
17714;SDS011;8977;50.902;4.314;2023-05-09T07:34:18;8.73;;;6.30;;
17714;SDS011;8977;50.902;4.314;2023-05-09T07:36:45;6.77;;;6.03;;
17714;SDS011;8977;50.902;4.314;2023-05-09T07:39:12;7.73;;;6.23;;
17714;SDS011;8977;50.902;4.314;2023-05-09T07:41:39;7.30;;;6.20;;
17714;SDS011;8977;50.902;4.314;2023-05-09T07:44:06;7.40;;;6.70;;
17714;SDS011;8977;50.902;4.314;2023-05-09T07:46:34;9.88;;;7.10;;
17714;SDS011;8977;50.902;4.314;2023-05-09T07:49:04;8.07;;;6.50;;
17714;SDS011;8977;50.902;4.314;2023-05-09T07:51:31;7.30;;;5.80;;
17714;SDS011;8977;50.902;4.314;2023-05-09T07:53:58;8.80;;;6.65;;
17714;SDS011;8977;50.902;4.314;2023-05-09T07:56:25;6.60;;;6.00;;
17714;SDS011;8977;50.902;4.314;2023-05-09T07:58:51;6.67;;;5.97;;
17714;SDS011;8977;50.902;4.314;2023-05-09T08:01:18;7.30;;;6.00;;
17714;SDS011;8977;50.902;4.314;2023-05-09T08:03:47;7.23;;;6.00;;
17714;SDS011;8977;50.902;4.314;2023-05-09T08:06:13;7.63;;;6.55;;
17714;SDS011;8977;50.902;4.314;2023-05-09T08:08:40;8.25;;;6.55;;
17714;SDS011;8977;50.902;4.314;2023-05-09T08:11:07;6.60;;;6.00;;
17714;SDS011;8977;50.902;4.314;2023-05-09T08:13:34;7.13;;;6.38;;
17714;SDS011;8977;50.902;4.314;2023-05-09T08:16:01;8.87;;;6.43;;
17714;SDS011;8977;50.902;4.314;2023-05-09T08:18:28;7.13;;;6.47;;
17714;SDS011;8977;50.902;4.314;2023-05-09T08:20:56;7.10;;;6.43;;
17714;SDS011;8977;50.902;4.314;2023-05-09T08:23:23;8.77;;;6.60;;
17714;SDS011;8977;50.902;4.314;2023-05-09T08:25:51;7.35;;;6.65;;
17714;SDS011;8977;50.902;4.314;2023-05-09T08:28:19;7.68;;;6.40;;
17714;SDS011;8977;50.902;4.314;2023-05-09T08:30:48;7.23;;;6.43;;
17714;SDS011;8977;50.902;4.314;2023-05-09T08:33:15;8.23;;;6.30;;
17714;SDS011;8977;50.902;4.314;2023-05-09T08:35:42;6.87;;;6.17;;
17714;SDS011;8977;50.902;4.314;2023-05-09T08:38:10;6.73;;;5.73;;
17714;SDS011;8977;50.902;4.314;2023-05-09T08:40:37;7.63;;;6.03;;
17714;SDS011;8977;50.902;4.314;2023-05-09T08:43:06;10.33;;;6.47;;
17714;SDS011;8977;50.902;4.314;2023-05-09T08:45:37;7.57;;;5.83;;
17714;SDS011;8977;50.902;4.314;2023-05-09T08:48:10;8.32;;;5.78;;
17714;SDS011;8977;50.902;4.314;2023-05-09T08:50:40;6.83;;;5.60;;
17714;SDS011;8977;50.902;4.314;2023-05-09T08:53:07;6.93;;;5.83;;
17714;SDS011;8977;50.902;4.314;2023-05-09T08:55:36;9.90;;;6.32;;
17714;SDS011;8977;50.902;4.314;2023-05-09T08:58:04;7.90;;;6.37;;
17714;SDS011;8977;50.902;4.314;2023-05-09T09:00:31;7.47;;;6.60;;
17714;SDS011;8977;50.902;4.314;2023-05-09T09:03:00;7.70;;;6.67;;
17714;SDS011;8977;50.902;4.314;2023-05-09T09:05:29;8.60;;;6.27;;
17714;SDS011;8977;50.902;4.314;2023-05-09T09:07:58;7.23;;;5.63;;
17714;SDS011;8977;50.902;4.314;2023-05-09T09:10:27;8.07;;;6.23;;
17714;SDS011;8977;50.902;4.314;2023-05-09T09:12:57;8.37;;;6.60;;
17714;SDS011;8977;50.902;4.314;2023-05-09T09:15:26;8.03;;;6.13;;
17714;SDS011;8977;50.902;4.314;2023-05-09T09:17:55;8.13;;;5.87;;
17714;SDS011;8977;50.902;4.314;2023-05-09T09:20:25;6.60;;;5.90;;
17714;SDS011;8977;50.902;4.314;2023-05-09T09:22:54;5.70;;;5.17;;
17714;SDS011;8977;50.902;4.314;2023-05-09T09:25:24;9.13;;;5.80;;
17714;SDS011;8977;50.902;4.314;2023-05-09T09:27:52;9.30;;;6.00;;
17714;SDS011;8977;50.902;4.314;2023-05-09T09:30:19;6.83;;;6.17;;
17714;SDS011;8977;50.902;4.314;2023-05-09T09:32:50;8.50;;;6.27;;
17714;SDS011;8977;50.902;4.314;2023-05-09T09:35:17;8.38;;;6.20;;
17714;SDS011;8977;50.902;4.314;2023-05-09T09:37:44;9.80;;;5.70;;
17714;SDS011;8977;50.902;4.314;2023-05-09T09:40:12;6.43;;;5.57;;
17714;SDS011;8977;50.902;4.314;2023-05-09T09:42:39;6.17;;;5.50;;
17714;SDS011;8977;50.902;4.314;2023-05-09T09:45:09;6.87;;;6.17;;
17714;SDS011;8977;50.902;4.314;2023-05-09T09:47:37;6.13;;;5.10;;
17714;SDS011;8977;50.902;4.314;2023-05-09T09:50:08;6.40;;;5.80;;
17714;SDS011;8977;50.902;4.314;2023-05-09T09:52:40;7.70;;;6.03;;
17714;SDS011;8977;50.902;4.314;2023-05-09T09:55:08;7.33;;;5.30;;
17714;SDS011;8977;50.902;4.314;2023-05-09T09:57:35;5.70;;;5.20;;
17714;SDS011;8977;50.902;4.314;2023-05-09T10:00:06;6.57;;;5.30;;
17714;SDS011;8977;50.902;4.314;2023-05-09T10:02:35;6.93;;;5.67;;
17714;SDS011;8977;50.902;4.314;2023-05-09T10:05:17;7.77;;;5.43;;
17714;SDS011;8977;50.902;4.314;2023-05-09T10:07:44;5.93;;;5.30;;
17714;SDS011;8977;50.902;4.314;2023-05-09T10:10:12;6.40;;;5.80;;
17714;SDS011;8977;50.902;4.314;2023-05-09T10:12:39;6.10;;;5.43;;
17714;SDS011;8977;50.902;4.314;2023-05-09T10:15:09;6.93;;;6.03;;
17714;SDS011;8977;50.902;4.314;2023-05-09T10:17:41;8.33;;;5.70;;
17714;SDS011;8977;50.902;4.314;2023-05-09T10:20:08;6.13;;;4.63;;
17714;SDS011;8977;50.902;4.314;2023-05-09T10:22:38;7.05;;;4.65;;
17714;SDS011;8977;50.902;4.314;2023-05-09T10:25:07;5.38;;;4.53;;
17714;SDS011;8977;50.902;4.314;2023-05-09T10:27:40;5.20;;;4.33;;
17714;SDS011;8977;50.902;4.314;2023-05-09T10:30:12;5.80;;;4.23;;
17714;SDS011;8977;50.902;4.314;2023-05-09T10:32:46;8.00;;;4.17;;
17714;SDS011;8977;50.902;4.314;2023-05-09T10:35:16;5.67;;;3.87;;
17714;SDS011;8977;50.902;4.314;2023-05-09T10:37:45;5.37;;;3.80;;
17714;SDS011;8977;50.902;4.314;2023-05-09T10:40:12;4.33;;;3.90;;
17714;SDS011;8977;50.902;4.314;2023-05-09T10:42:41;5.57;;;3.97;;
17714;SDS011;8977;50.902;4.314;2023-05-09T10:45:09;4.60;;;4.10;;
17714;SDS011;8977;50.902;4.314;2023-05-09T10:47:37;4.87;;;4.17;;
17714;SDS011;8977;50.902;4.314;2023-05-09T10:50:07;7.23;;;5.03;;
17714;SDS011;8977;50.902;4.314;2023-05-09T10:58:17;6.63;;;4.90;;
17714;SDS011;8977;50.902;4.314;2023-05-09T11:00:46;5.93;;;4.73;;
17714;SDS011;8977;50.902;4.314;2023-05-09T11:03:13;6.37;;;5.00;;
17714;SDS011;8977;50.902;4.314;2023-05-09T11:05:43;5.90;;;4.47;;
17714;SDS011;8977;50.902;4.314;2023-05-09T11:08:18;5.23;;;4.47;;
17714;SDS011;8977;50.902;4.314;2023-05-09T11:10:49;5.60;;;4.28;;
17714;SDS011;8977;50.902;4.314;2023-05-09T11:13:19;4.80;;;4.33;;
17714;SDS011;8977;50.902;4.314;2023-05-09T11:16:07;4.60;;;3.87;;
17714;SDS011;8977;50.902;4.314;2023-05-09T11:18:49;6.40;;;4.40;;
17714;SDS011;8977;50.902;4.314;2023-05-09T11:21:19;4.60;;;3.60;;
17714;SDS011;8977;50.902;4.314;2023-05-09T11:23:46;6.53;;;3.80;;
17714;SDS011;8977;50.902;4.314;2023-05-09T11:26:15;5.03;;;3.53;;
17714;SDS011;8977;50.902;4.314;2023-05-09T11:28:42;3.87;;;3.00;;
17714;SDS011;8977;50.902;4.314;2023-05-09T11:31:17;4.87;;;3.17;;
17714;SDS011;8977;50.902;4.314;2023-05-09T11:33:45;3.60;;;3.17;;
17714;SDS011;8977;50.902;4.314;2023-05-09T11:36:20;3.87;;;2.80;;
17714;SDS011;8977;50.902;4.314;2023-05-09T11:39:01;5.07;;;3.07;;
17714;SDS011;8977;50.902;4.314;2023-05-09T11:41:30;4.93;;;2.80;;
17714;SDS011;8977;50.902;4.314;2023-05-09T11:44:03;2.60;;;2.40;;
17714;SDS011;8977;50.902;4.314;2023-05-09T11:46:37;8.53;;;3.03;;
17714;SDS011;8977;50.902;4.314;2023-05-09T11:49:05;3.30;;;2.83;;
17714;SDS011;8977;50.902;4.314;2023-05-09T11:51:35;3.90;;;2.97;;
17714;SDS011;8977;50.902;4.314;2023-05-09T11:54:03;3.90;;;3.30;;
17714;SDS011;8977;50.902;4.314;2023-05-09T11:56:31;4.10;;;3.20;;
17714;SDS011;8977;50.902;4.314;2023-05-09T11:58:59;5.53;;;3.27;;
17714;SDS011;8977;50.902;4.314;2023-05-09T12:01:27;4.10;;;3.20;;
17714;SDS011;8977;50.902;4.314;2023-05-09T12:03:54;4.70;;;3.87;;
17714;SDS011;8977;50.902;4.314;2023-05-09T12:06:23;3.50;;;3.20;;
17714;SDS011;8977;50.902;4.314;2023-05-09T12:08:54;4.90;;;3.27;;
17714;SDS011;8977;50.902;4.314;2023-05-09T12:11:21;4.97;;;3.37;;
17714;SDS011;8977;50.902;4.314;2023-05-09T12:13:50;3.90;;;3.50;;
17714;SDS011;8977;50.902;4.314;2023-05-09T12:16:18;3.80;;;3.40;;
17714;SDS011;8977;50.902;4.314;2023-05-09T12:18:46;4.80;;;3.90;;
17714;SDS011;8977;50.902;4.314;2023-05-09T12:21:14;5.80;;;4.23;;
17714;SDS011;8977;50.902;4.314;2023-05-09T12:23:41;5.77;;;4.63;;
17714;SDS011;8977;50.902;4.314;2023-05-09T12:26:09;6.70;;;4.60;;
17714;SDS011;8977;50.902;4.314;2023-05-09T12:28:36;6.03;;;3.77;;
17714;SDS011;8977;50.902;4.314;2023-05-09T12:31:04;3.47;;;3.17;;
17714;SDS011;8977;50.902;4.314;2023-05-09T12:33:31;4.37;;;3.70;;
17714;SDS011;8977;50.902;4.314;2023-05-09T12:36:03;5.70;;;3.70;;
17714;SDS011;8977;50.902;4.314;2023-05-09T12:38:31;3.70;;;2.87;;
17714;SDS011;8977;50.902;4.314;2023-05-09T12:40:59;6.87;;;3.30;;
17714;SDS011;8977;50.902;4.314;2023-05-09T12:43:30;3.97;;;2.90;;
17714;SDS011;8977;50.902;4.314;2023-05-09T12:45:58;4.50;;;3.20;;
17714;SDS011;8977;50.902;4.314;2023-05-09T12:48:25;3.60;;;2.80;;
17714;SDS011;8977;50.902;4.314;2023-05-09T12:50:53;4.97;;;3.00;;
17714;SDS011;8977;50.902;4.314;2023-05-09T12:53:23;3.60;;;2.70;;
17714;SDS011;8977;50.902;4.314;2023-05-09T12:55:53;5.67;;;3.00;;
17714;SDS011;8977;50.902;4.314;2023-05-09T12:58:21;5.97;;;3.00;;
17714;SDS011;8977;50.902;4.314;2023-05-09T13:00:49;4.87;;;2.70;;
17714;SDS011;8977;50.902;4.314;2023-05-09T13:03:23;4.77;;;3.23;;
17714;SDS011;8977;50.902;4.314;2023-05-09T13:05:55;7.07;;;3.30;;
17714;SDS011;8977;50.902;4.314;2023-05-09T13:08:23;3.87;;;3.27;;
17714;SDS011;8977;50.902;4.314;2023-05-09T13:10:50;5.27;;;3.77;;
17714;SDS011;8977;50.902;4.314;2023-05-09T13:13:17;5.20;;;4.20;;
17714;SDS011;8977;50.902;4.314;2023-05-09T13:15:46;4.37;;;3.80;;
17714;SDS011;8977;50.902;4.314;2023-05-09T13:18:15;4.87;;;4.20;;
17714;SDS011;8977;50.902;4.314;2023-05-09T13:20:42;5.93;;;4.80;;
17714;SDS011;8977;50.902;4.314;2023-05-09T13:23:09;5.07;;;4.53;;
17714;SDS011;8977;50.902;4.314;2023-05-09T13:25:35;5.67;;;4.87;;
17714;SDS011;8977;50.902;4.314;2023-05-09T13:28:02;6.20;;;4.40;;
17714;SDS011;8977;50.902;4.314;2023-05-09T13:30:29;4.80;;;3.93;;
17714;SDS011;8977;50.902;4.314;2023-05-09T13:32:56;6.83;;;4.00;;
17714;SDS011;8977;50.902;4.314;2023-05-09T13:35:25;5.27;;;4.10;;
17714;SDS011;8977;50.902;4.314;2023-05-09T13:37:52;5.77;;;4.47;;
17714;SDS011;8977;50.902;4.314;2023-05-09T13:40:19;4.40;;;4.00;;
17714;SDS011;8977;50.902;4.314;2023-05-09T13:42:45;4.17;;;3.40;;
17714;SDS011;8977;50.902;4.314;2023-05-09T13:45:13;5.83;;;3.50;;
17714;SDS011;8977;50.902;4.314;2023-05-09T13:47:40;4.07;;;3.50;;
17714;SDS011;8977;50.902;4.314;2023-05-09T13:50:07;5.57;;;3.13;;
17714;SDS011;8977;50.902;4.314;2023-05-09T13:52:36;4.10;;;3.07;;
17714;SDS011;8977;50.902;4.314;2023-05-09T13:55:03;4.90;;;3.20;;
17714;SDS011;8977;50.902;4.314;2023-05-09T13:57:31;3.67;;;3.30;;
17714;SDS011;8977;50.902;4.314;2023-05-09T13:59:58;3.70;;;3.40;;
17714;SDS011;8977;50.902;4.314;2023-05-09T14:02:25;6.13;;;3.60;;
17714;SDS011;8977;50.902;4.314;2023-05-09T14:04:52;6.50;;;4.00;;
17714;SDS011;8977;50.902;4.314;2023-05-09T14:07:19;5.37;;;3.80;;
17714;SDS011;8977;50.902;4.314;2023-05-09T14:09:48;6.37;;;4.83;;
17714;SDS011;8977;50.902;4.314;2023-05-09T14:12:14;5.23;;;4.73;;
17714;SDS011;8977;50.902;4.314;2023-05-09T14:14:41;5.97;;;4.50;;
17714;SDS011;8977;50.902;4.314;2023-05-09T14:17:08;4.90;;;4.50;;
17714;SDS011;8977;50.902;4.314;2023-05-09T14:19:36;5.83;;;4.70;;
17714;SDS011;8977;50.902;4.314;2023-05-09T14:22:03;6.20;;;5.00;;
17714;SDS011;8977;50.902;4.314;2023-05-09T14:24:30;5.60;;;4.97;;
17714;SDS011;8977;50.902;4.314;2023-05-09T14:26:58;5.20;;;4.70;;
17714;SDS011;8977;50.902;4.314;2023-05-09T14:29:25;5.57;;;4.77;;
17714;SDS011;8977;50.902;4.314;2023-05-09T14:31:53;4.67;;;4.00;;
17714;SDS011;8977;50.902;4.314;2023-05-09T14:34:20;4.43;;;4.03;;
17714;SDS011;8977;50.902;4.314;2023-05-09T14:36:47;6.17;;;3.83;;
17714;SDS011;8977;50.902;4.314;2023-05-09T14:39:14;3.30;;;2.93;;
17714;SDS011;8977;50.902;4.314;2023-05-09T14:41:41;4.03;;;3.63;;
17714;SDS011;8977;50.902;4.314;2023-05-09T14:44:09;4.13;;;3.53;;
17714;SDS011;8977;50.902;4.314;2023-05-09T14:46:37;4.47;;;4.03;;
17714;SDS011;8977;50.902;4.314;2023-05-09T14:49:04;4.00;;;3.60;;
17714;SDS011;8977;50.902;4.314;2023-05-09T14:51:31;3.87;;;3.57;;
17714;SDS011;8977;50.902;4.314;2023-05-09T14:53:59;5.90;;;3.93;;
17714;SDS011;8977;50.902;4.314;2023-05-09T14:56:27;4.13;;;3.20;;
17714;SDS011;8977;50.902;4.314;2023-05-09T14:58:54;3.60;;;3.17;;
17714;SDS011;8977;50.902;4.314;2023-05-09T15:01:22;3.03;;;2.60;;
17714;SDS011;8977;50.902;4.314;2023-05-09T15:03:49;2.93;;;2.53;;
17714;SDS011;8977;50.902;4.314;2023-05-09T15:06:16;4.53;;;2.20;;
17714;SDS011;8977;50.902;4.314;2023-05-09T15:08:43;2.17;;;1.97;;
17714;SDS011;8977;50.902;4.314;2023-05-09T15:11:10;2.57;;;2.00;;